Time;durP1;ratioP1;P1;durP2;ratioP2;P2;SDS_P1;SDS_P2;PMS_P1;PMS_P2;Temp;Humidity;BMP_temperature;BMP_pressure;BME280_temperature;BME280_humidity;BME280_pressure;Samples;Min_cycle;Max_cycle;Signal;HPM_P1;HPM_P2
2021/05/09 00:00:41;;;;;;;15.52;8.18;;;;;;;;;;5073139;28;20091;-74
2021/05/09 00:03:07;;;;;;;17.02;8.82;;;;;;;;;;5073343;28;20054;-73
2021/05/09 00:05:33;;;;;;;17.63;8.32;;;;;;;;;;5073752;28;20064;-74
2021/05/09 00:07:59;;;;;;;17.42;8.77;;;;;;;;;;5073574;28;20431;-77
2021/05/09 00:10:26;;;;;;;18.38;8.93;;;;;;;;;;5073720;28;20025;-72
2021/05/09 00:12:52;;;;;;;19.38;9.38;;;;;;;;;;5073633;28;20024;-76
2021/05/09 06:54:30;;;;;;;10.95;4.70;;;;;;;;;;4854181;27;20064;-68
2021/05/09 06:56:58;;;;;;;13.13;4.90;;;;;;;;;;4866841;29;20025;-68
2021/05/09 06:59:24;;;;;;;11.70;5.07;;;;;;;;;;4876444;29;20025;-68
2021/05/09 07:01:50;;;;;;;10.25;5.07;;;;;;;;;;4876171;29;20081;-69
2021/05/09 07:04:16;;;;;;;11.13;5.45;;;;;;;;;;4859577;29;20043;-70
2021/05/09 07:06:42;;;;;;;11.30;5.75;;;;;;;;;;4865832;29;20034;-70
2021/05/09 07:09:11;;;;;;;15.95;5.75;;;;;;;;;;4841090;29;20034;-72
2021/05/09 07:11:38;;;;;;;12.73;6.18;;;;;;;;;;4857709;29;20037;-70
2021/05/09 07:14:04;;;;;;;10.73;5.47;;;;;;;;;;4841043;29;20120;-71
2021/05/09 07:16:31;;;;;;;12.02;6.10;;;;;;;;;;4857715;29;20033;-73
2021/05/09 07:18:57;;;;;;;15.68;6.40;;;;;;;;;;4858181;29;20082;-70
2021/05/09 07:21:29;;;;;;;11.00;5.45;;;;;;;;;;4857698;29;20394;-71
2021/05/09 07:23:55;;;;;;;10.13;5.10;;;;;;;;;;4857504;29;20076;-69
2021/05/09 07:26:21;;;;;;;11.18;4.75;;;;;;;;;;4840792;29;20034;-72
2021/05/09 07:28:47;;;;;;;7.93;3.90;;;;;;;;;;4863502;29;20493;-71
2021/05/09 07:31:14;;;;;;;7.95;3.75;;;;;;;;;;4876021;29;20044;-71
2021/05/09 07:33:40;;;;;;;8.77;3.55;;;;;;;;;;4875809;29;20378;-71
2021/05/09 07:36:06;;;;;;;9.05;4.03;;;;;;;;;;4875416;29;20033;-81
2021/05/09 07:38:33;;;;;;;7.85;3.70;;;;;;;;;;4876260;29;20021;-82
2021/05/09 07:40:59;;;;;;;7.65;3.40;;;;;;;;;;4859531;29;20034;-81
2021/05/09 07:43:25;;;;;;;7.97;3.30;;;;;;;;;;4877078;29;20068;-81
2021/05/09 07:45:51;;;;;;;8.48;3.67;;;;;;;;;;4888253;29;20025;-82
2021/05/09 07:48:17;;;;;;;6.55;2.88;;;;;;;;;;4893862;29;20523;-80
2021/05/09 07:50:43;;;;;;;7.18;2.60;;;;;;;;;;4889406;29;20044;-80
2021/05/09 07:53:10;;;;;;;6.07;2.65;;;;;;;;;;4883420;29;20068;-73
2021/05/09 07:55:36;;;;;;;7.22;2.70;;;;;;;;;;4862349;29;20140;-83
2021/05/09 07:58:13;;;;;;;5.68;2.55;;;;;;;;;;4879712;29;20054;-76
2021/05/09 08:00:39;;;;;;;7.25;2.97;;;;;;;;;;4861619;29;20047;-75
2021/05/09 08:03:05;;;;;;;7.00;2.95;;;;;;;;;;4874290;29;20036;-75
2021/05/09 08:05:32;;;;;;;7.68;3.63;;;;;;;;;;4873734;29;20036;-79
2021/05/09 08:07:58;;;;;;;7.10;3.38;;;;;;;;;;4878513;29;20029;-76
2021/05/09 08:10:25;;;;;;;6.30;2.95;;;;;;;;;;4878950;29;20025;-73
2021/05/09 08:12:51;;;;;;;6.60;3.00;;;;;;;;;;4872235;29;20065;-74
2021/05/09 08:15:18;;;;;;;5.78;3.20;;;;;;;;;;4872263;29;20051;-73
2021/05/09 08:17:46;;;;;;;7.05;3.53;;;;;;;;;;4869752;29;20040;-76
2021/05/09 08:20:12;;;;;;;5.63;3.03;;;;;;;;;;4873800;29;20033;-76
2021/05/09 08:22:38;;;;;;;6.13;3.22;;;;;;;;;;4869149;29;20032;-77
2021/05/09 08:25:07;;;;;;;7.85;3.10;;;;;;;;;;4868740;29;20035;-75
2021/05/09 08:27:34;;;;;;;6.60;3.78;;;;;;;;;;4871076;29;20047;-79
2021/05/09 08:30:05;;;;;;;8.13;3.55;;;;;;;;;;4869985;29;20469;-74
2021/05/09 08:32:31;;;;;;;7.68;3.00;;;;;;;;;;4874091;29;20146;-77
2021/05/09 08:34:58;;;;;;;6.10;2.95;;;;;;;;;;4877349;29;20045;-74
2021/05/09 08:37:24;;;;;;;6.95;2.45;;;;;;;;;;4876153;29;20101;-73
2021/05/09 08:39:50;;;;;;;6.32;2.75;;;;;;;;;;4877487;29;20033;-77
2021/05/09 08:42:17;;;;;;;6.07;2.90;;;;;;;;;;4877384;29;20040;-72
2021/05/09 08:44:46;;;;;;;8.02;3.40;;;;;;;;;;4874225;29;20494;-73
2021/05/09 08:47:14;;;;;;;6.00;3.17;;;;;;;;;;4869851;29;20052;-71
2021/05/09 08:49:41;;;;;;;6.28;3.63;;;;;;;;;;4869499;29;20385;-71
2021/05/09 08:52:10;;;;;;;8.40;3.65;;;;;;;;;;4866695;29;20441;-71
2021/05/09 08:54:36;;;;;;;6.65;3.85;;;;;;;;;;4869522;29;20043;-72
2021/05/09 08:57:05;;;;;;;7.53;3.88;;;;;;;;;;4869138;29;20021;-73
2021/05/09 08:59:31;;;;;;;9.93;4.32;;;;;;;;;;4870558;29;20543;-72
2021/05/09 09:01:58;;;;;;;9.50;4.30;;;;;;;;;;4875518;29;20037;-73
2021/05/09 09:04:24;;;;;;;7.10;3.92;;;;;;;;;;4872707;29;20029;-72
2021/05/09 09:06:53;;;;;;;6.50;3.97;;;;;;;;;;4867869;29;20021;-74
2021/05/09 09:09:23;;;;;;;8.20;3.67;;;;;;;;;;4867745;29;20490;-80
2021/05/09 09:11:57;;;;;;;12.02;3.90;;;;;;;;;;4879241;29;20112;-79
2021/05/09 09:14:29;;;;;;;8.88;3.97;;;;;;;;;;4867332;29;20088;-75
2021/05/09 09:17:14;;;;;;;9.52;4.28;;;;;;;;;;4870885;29;20033;-75
2021/05/09 09:19:58;;;;;;;8.00;3.45;;;;;;;;;;4868532;29;20025;-76
2021/05/09 09:22:24;;;;;;;8.05;3.60;;;;;;;;;;4870708;29;20048;-85
2021/05/09 09:25:07;;;;;;;8.13;4.30;;;;;;;;;;4875620;29;20025;-73
2021/05/09 09:27:33;;;;;;;7.13;3.78;;;;;;;;;;4872333;29;20145;-75
2021/05/09 09:30:02;;;;;;;8.40;3.72;;;;;;;;;;4877999;29;20144;-73
2021/05/09 09:32:28;;;;;;;8.18;3.90;;;;;;;;;;4876821;29;20421;-73
2021/05/09 09:34:54;;;;;;;7.55;3.78;;;;;;;;;;4877550;29;20069;-74
2021/05/09 09:37:21;;;;;;;6.22;3.50;;;;;;;;;;4877991;29;20021;-70
2021/05/09 09:40:05;;;;;;;6.88;3.38;;;;;;;;;;4875212;29;20033;-72
2021/05/09 09:42:41;;;;;;;8.98;3.78;;;;;;;;;;4869835;29;20029;-71
2021/05/09 09:45:19;;;;;;;7.03;3.60;;;;;;;;;;4868326;29;20508;-73
2021/05/09 09:47:49;;;;;;;6.15;3.38;;;;;;;;;;4857353;29;20681;-75
2021/05/09 09:50:34;;;;;;;5.18;2.75;;;;;;;;;;4877079;29;20033;-70
2021/05/09 09:53:01;;;;;;;6.85;2.75;;;;;;;;;;4877064;29;20092;-73
2021/05/09 09:55:27;;;;;;;5.47;3.10;;;;;;;;;;4868539;29;20045;-69
2021/05/09 09:58:03;;;;;;;4.63;2.75;;;;;;;;;;4872266;29;20029;-71
2021/05/09 10:00:29;;;;;;;8.32;3.22;;;;;;;;;;4870901;29;20025;-68
2021/05/09 10:02:55;;;;;;;6.47;3.08;;;;;;;;;;4854804;29;20029;-69
2021/05/09 10:05:22;;;;;;;9.05;4.55;;;;;;;;;;4868421;29;20068;-68
2021/05/09 10:07:49;;;;;;;4.93;2.70;;;;;;;;;;4875759;29;20092;-72
2021/05/09 10:10:15;;;;;;;7.68;3.53;;;;;;;;;;4860912;29;20038;-71
2021/05/09 10:12:42;;;;;;;6.15;3.22;;;;;;;;;;4871709;29;20037;-71
2021/05/09 10:15:08;;;;;;;5.78;3.15;;;;;;;;;;4876014;29;20044;-72
2021/05/09 10:17:36;;;;;;;5.72;3.38;;;;;;;;;;4874302;29;20029;-71
2021/05/09 10:20:05;;;;;;;5.60;3.35;;;;;;;;;;4871219;29;20044;-72
2021/05/09 10:22:32;;;;;;;5.72;2.70;;;;;;;;;;4871430;29;20040;-69
2021/05/09 10:24:59;;;;;;;13.88;2.50;;;;;;;;;;4870553;29;20029;-68
2021/05/09 10:27:34;;;;;;;5.10;2.40;;;;;;;;;;4866722;29;20064;-64
2021/05/09 10:30:00;;;;;;;3.17;1.92;;;;;;;;;;4868449;29;20029;-68
2021/05/09 10:32:26;;;;;;;3.53;1.92;;;;;;;;;;4865553;29;20021;-68
2021/05/09 10:34:59;;;;;;;3.38;1.73;;;;;;;;;;4861560;29;20064;-67
2021/05/09 10:40:19;;;;;;;4.88;2.10;;;;;;;;;;4869075;29;20029;-65
2021/05/09 10:42:45;;;;;;;6.47;2.50;;;;;;;;;;4861611;29;20097;-69
2021/05/09 10:45:11;;;;;;;3.42;1.65;;;;;;;;;;4865811;29;20040;-68
2021/05/09 10:47:38;;;;;;;4.45;1.67;;;;;;;;;;4864154;29;20037;-65
2021/05/09 10:50:26;;;;;;;4.68;2.17;;;;;;;;;;4867875;29;20029;-70
2021/05/09 10:52:52;;;;;;;2.97;1.70;;;;;;;;;;4867553;29;20061;-68
2021/05/09 10:55:41;;;;;;;2.70;1.60;;;;;;;;;;4867680;29;20049;-69
2021/05/09 10:58:08;;;;;;;2.30;1.60;;;;;;;;;;4867079;29;20025;-70
2021/05/09 11:00:53;;;;;;;3.17;1.50;;;;;;;;;;4848736;29;20033;-65
2021/05/09 11:03:37;;;;;;;3.83;1.73;;;;;;;;;;4869431;29;20088;-66
2021/05/09 11:06:06;;;;;;;5.72;1.95;;;;;;;;;;4868856;29;20026;-70
2021/05/09 11:08:48;;;;;;;4.18;1.40;;;;;;;;;;4870825;29;20029;-69
2021/05/09 11:11:26;;;;;;;3.67;1.50;;;;;;;;;;4864352;29;20058;-68
2021/05/09 11:16:28;;;;;;;6.22;2.78;;;;;;;;;;4862478;29;20072;-66
2021/05/09 11:18:58;;;;;;;4.65;1.73;;;;;;;;;;4876195;29;20097;-67
2021/05/09 11:21:24;;;;;;;3.90;1.35;;;;;;;;;;4867888;29;20030;-67
2021/05/09 11:23:51;;;;;;;3.60;1.50;;;;;;;;;;4870329;29;20037;-65
2021/05/09 11:26:24;;;;;;;2.17;1.20;;;;;;;;;;4855967;29;20124;-64
2021/05/09 11:29:05;;;;;;;2.75;1.52;;;;;;;;;;4873142;29;20021;-64
2021/05/09 11:31:35;;;;;;;3.35;1.60;;;;;;;;;;4870782;29;20030;-64
2021/05/09 11:34:02;;;;;;;4.07;1.63;;;;;;;;;;4869807;29;20047;-63
2021/05/09 11:36:28;;;;;;;5.55;1.40;;;;;;;;;;4875725;29;20895;-68
2021/05/09 11:39:24;;;;;;;2.50;1.35;;;;;;;;;;4880040;29;20033;-69
2021/05/09 11:41:50;;;;;;;2.55;1.33;;;;;;;;;;4850349;29;20134;-64
2021/05/09 11:44:16;;;;;;;2.45;1.40;;;;;;;;;;4865198;29;20037;-69
2021/05/09 11:46:42;;;;;;;3.33;1.50;;;;;;;;;;4854009;29;20029;-68
2021/05/09 11:49:15;;;;;;;3.53;1.63;;;;;;;;;;4871237;29;20061;-69
2021/05/09 11:51:54;;;;;;;3.08;1.70;;;;;;;;;;4879140;29;20033;-67
2021/05/09 11:54:21;;;;;;;3.35;1.70;;;;;;;;;;4879777;29;20064;-67
2021/05/09 11:56:57;;;;;;;3.35;1.42;;;;;;;;;;4879365;29;20033;-68
2021/05/09 11:59:40;;;;;;;4.63;1.63;;;;;;;;;;4876803;29;20043;-68
2021/05/09 12:02:11;;;;;;;3.40;1.52;;;;;;;;;;4869018;29;20030;-69
2021/05/09 12:04:38;;;;;;;4.15;1.50;;;;;;;;;;4870753;29;20084;-67
2021/05/09 12:07:05;;;;;;;3.97;2.13;;;;;;;;;;4876312;29;20133;-67
2021/05/09 12:09:32;;;;;;;4.07;1.60;;;;;;;;;;4863118;29;20046;-70
2021/05/09 12:11:58;;;;;;;4.13;1.50;;;;;;;;;;4860960;29;20056;-69
2021/05/09 12:14:25;;;;;;;3.08;1.52;;;;;;;;;;4860629;29;20063;-69
2021/05/09 12:16:51;;;;;;;4.20;1.33;;;;;;;;;;4860718;29;20025;-67
2021/05/09 12:19:18;;;;;;;4.13;1.45;;;;;;;;;;4859788;29;20037;-71
2021/05/09 12:21:54;;;;;;;3.67;1.50;;;;;;;;;;4858177;29;20104;-67
2021/05/09 12:24:20;;;;;;;1.77;1.35;;;;;;;;;;4841907;29;20132;-67
2021/05/09 12:27:05;;;;;;;3.03;1.13;;;;;;;;;;4843802;29;20121;-69
2021/05/09 12:29:41;;;;;;;2.95;1.40;;;;;;;;;;4860327;29;20481;-67
2021/05/09 12:32:16;;;;;;;4.07;1.50;;;;;;;;;;4860162;29;20097;-64
2021/05/09 12:34:58;;;;;;;2.67;1.25;;;;;;;;;;4859231;29;20041;-71
2021/05/09 12:37:28;;;;;;;2.42;1.25;;;;;;;;;;4859749;29;20514;-67
2021/05/09 12:40:13;;;;;;;3.00;1.20;;;;;;;;;;4862680;29;20062;-71
2021/05/09 12:42:51;;;;;;;5.95;1.42;;;;;;;;;;4860506;29;20025;-66
2021/05/09 12:45:18;;;;;;;3.50;1.25;;;;;;;;;;4872886;29;20033;-74
2021/05/09 12:47:44;;;;;;;1.63;1.10;;;;;;;;;;4878694;29;20033;-73
2021/05/09 12:50:10;;;;;;;2.60;1.20;;;;;;;;;;4878623;29;20469;-73
2021/05/09 12:52:46;;;;;;;2.45;1.10;;;;;;;;;;4878092;29;20437;-69
2021/05/09 12:55:25;;;;;;;2.92;1.13;;;;;;;;;;4878754;29;20045;-70
2021/05/09 12:58:12;;;;;;;6.40;1.30;;;;;;;;;;4877909;29;20033;-70
2021/05/09 13:00:38;;;;;;;3.28;1.27;;;;;;;;;;4878191;29;20058;-71
2021/05/09 13:03:04;;;;;;;3.92;1.20;;;;;;;;;;4874744;29;20082;-72
2021/05/09 13:05:30;;;;;;;2.35;1.20;;;;;;;;;;4859120;29;20037;-69
2021/05/09 13:07:57;;;;;;;4.03;1.13;;;;;;;;;;4860047;29;20530;-73
2021/05/09 13:10:24;;;;;;;3.97;1.40;;;;;;;;;;4864773;29;20478;-74
2021/05/09 13:12:51;;;;;;;3.75;1.23;;;;;;;;;;4875216;29;20218;-74
2021/05/09 13:15:17;;;;;;;3.17;1.30;;;;;;;;;;4859395;29;20041;-75
2021/05/09 13:17:44;;;;;;;6.72;4.40;;;;;;;;;;4852224;29;20041;-66
2021/05/09 13:20:11;;;;;;;4.10;1.70;;;;;;;;;;4872212;29;20033;-75
2021/05/09 13:22:37;;;;;;;2.08;1.30;;;;;;;;;;4877734;29;20025;-77
2021/05/09 13:25:04;;;;;;;5.15;1.70;;;;;;;;;;4876720;29;20113;-73
2021/05/09 13:27:33;;;;;;;2.88;1.00;;;;;;;;;;4876018;29;20062;-74
2021/05/09 13:30:00;;;;;;;3.22;1.40;;;;;;;;;;4876942;29;20032;-69
2021/05/09 13:32:26;;;;;;;2.58;1.30;;;;;;;;;;4877803;29;20025;-72
2021/05/09 13:34:53;;;;;;;3.20;1.17;;;;;;;;;;4876618;29;21011;-70
2021/05/09 13:37:19;;;;;;;5.88;1.55;;;;;;;;;;4876509;29;20048;-71
2021/05/09 13:39:45;;;;;;;4.22;1.30;;;;;;;;;;4877783;29;20068;-73
2021/05/09 13:42:11;;;;;;;4.13;1.23;;;;;;;;;;4877296;29;20033;-74
2021/05/09 13:44:37;;;;;;;3.70;1.45;;;;;;;;;;4876844;29;20763;-72
2021/05/09 13:47:03;;;;;;;6.65;1.85;;;;;;;;;;4876766;29;20029;-71
2021/05/09 13:49:29;;;;;;;2.63;1.50;;;;;;;;;;4877026;29;20516;-70
2021/05/09 13:51:55;;;;;;;3.42;1.25;;;;;;;;;;4876414;29;20054;-71
2021/05/09 13:54:22;;;;;;;3.05;1.40;;;;;;;;;;4875849;29;20104;-72
2021/05/09 13:56:48;;;;;;;2.55;1.10;;;;;;;;;;4875109;29;20105;-69
2021/05/09 13:59:15;;;;;;;4.35;1.63;;;;;;;;;;4881586;29;20485;-71
2021/05/09 14:01:41;;;;;;;3.55;1.33;;;;;;;;;;4878693;29;20021;-68
2021/05/09 14:04:09;;;;;;;5.95;1.25;;;;;;;;;;4876871;29;20099;-68
2021/05/09 14:06:36;;;;;;;2.22;1.02;;;;;;;;;;4876405;29;20017;-71
2021/05/09 14:09:02;;;;;;;3.90;1.45;;;;;;;;;;4875932;29;20064;-65
2021/05/09 14:11:28;;;;;;;3.95;1.10;;;;;;;;;;4875746;29;20021;-69
2021/05/09 14:13:55;;;;;;;3.78;1.33;;;;;;;;;;4876403;29;20033;-71
2021/05/09 14:16:23;;;;;;;6.00;1.60;;;;;;;;;;4875545;29;20033;-73
2021/05/09 14:18:49;;;;;;;7.68;1.50;;;;;;;;;;4873007;29;20441;-68
2021/05/09 14:21:15;;;;;;;3.47;1.60;;;;;;;;;;4875648;29;20143;-73
2021/05/09 14:23:41;;;;;;;3.30;1.50;;;;;;;;;;4868672;29;20041;-76
2021/05/09 14:26:08;;;;;;;5.70;1.60;;;;;;;;;;4870761;29;20484;-68
2021/05/09 14:28:34;;;;;;;2.60;1.20;;;;;;;;;;4873703;29;20338;-72
2021/05/09 14:31:00;;;;;;;3.28;1.27;;;;;;;;;;4876108;29;20032;-71
2021/05/09 14:33:26;;;;;;;3.08;1.23;;;;;;;;;;4876177;29;20028;-73
2021/05/09 14:35:52;;;;;;;2.88;1.40;;;;;;;;;;4875908;29;20098;-74
2021/05/09 14:38:18;;;;;;;2.45;1.30;;;;;;;;;;4872832;29;20461;-70
2021/05/09 14:40:45;;;;;;;4.95;1.33;;;;;;;;;;4875906;29;20033;-75
2021/05/09 14:43:11;;;;;;;3.80;1.10;;;;;;;;;;4875491;29;20375;-69
2021/05/09 14:45:37;;;;;;;8.40;1.73;;;;;;;;;;4875773;29;20523;-73
2021/05/09 14:48:03;;;;;;;2.80;1.17;;;;;;;;;;4865119;29;20169;-72
2021/05/09 14:50:29;;;;;;;5.80;3.03;;;;;;;;;;4871938;29;20029;-74
2021/05/09 14:52:55;;;;;;;2.72;1.40;;;;;;;;;;4874055;29;20045;-76
2021/05/09 14:55:21;;;;;;;6.40;1.58;;;;;;;;;;4876654;29;20074;-69
2021/05/09 14:57:48;;;;;;;3.78;1.45;;;;;;;;;;4874738;29;20033;-73
2021/05/09 15:00:14;;;;;;;21.80;2.13;;;;;;;;;;4876438;29;20033;-76
2021/05/09 15:02:40;;;;;;;2.50;1.10;;;;;;;;;;4876183;29;20120;-74
2021/05/09 15:05:07;;;;;;;3.65;1.30;;;;;;;;;;4875840;29;20114;-76
2021/05/09 15:07:34;;;;;;;10.40;2.03;;;;;;;;;;4876571;29;20041;-69
2021/05/09 15:10:00;;;;;;;4.88;1.42;;;;;;;;;;4875545;29;20043;-69
2021/05/09 15:12:26;;;;;;;3.65;1.50;;;;;;;;;;4874407;29;20422;-75
2021/05/09 15:14:52;;;;;;;3.28;1.65;;;;;;;;;;4873893;29;20048;-72
2021/05/09 15:17:18;;;;;;;6.00;2.15;;;;;;;;;;4874841;29;20476;-73
2021/05/09 15:19:44;;;;;;;2.65;1.52;;;;;;;;;;4873007;29;20105;-74
2021/05/09 15:22:11;;;;;;;2.97;1.60;;;;;;;;;;4874021;29;20374;-70
2021/05/09 15:24:38;;;;;;;2.33;1.20;;;;;;;;;;4874265;29;20025;-73
2021/05/09 15:27:04;;;;;;;2.97;1.15;;;;;;;;;;4875952;29;20029;-78
2021/05/09 15:29:31;;;;;;;2.35;1.20;;;;;;;;;;4853861;29;20489;-75
2021/05/09 15:31:58;;;;;;;3.47;1.50;;;;;;;;;;4852758;29;20107;-73
2021/05/09 15:34:25;;;;;;;6.82;1.45;;;;;;;;;;4870740;29;20085;-73
2021/05/09 15:36:52;;;;;;;3.65;1.10;;;;;;;;;;4877156;29;20041;-76
2021/05/09 15:39:18;;;;;;;2.55;1.15;;;;;;;;;;4875649;29;20026;-74
2021/05/09 15:41:44;;;;;;;2.15;1.25;;;;;;;;;;4875981;29;20032;-67
2021/05/09 15:44:11;;;;;;;2.13;1.20;;;;;;;;;;4876769;29;20496;-65
2021/05/09 15:46:37;;;;;;;3.05;1.05;;;;;;;;;;4872894;29;20033;-75
2021/05/09 15:49:03;;;;;;;2.15;1.20;;;;;;;;;;4874890;29;20029;-66
2021/05/09 15:51:29;;;;;;;2.55;1.17;;;;;;;;;;4876454;29;20032;-74
2021/05/09 15:53:55;;;;;;;2.72;1.20;;;;;;;;;;4874731;29;20057;-75
2021/05/09 15:56:22;;;;;;;2.47;1.08;;;;;;;;;;4873736;29;20475;-75
2021/05/09 15:58:48;;;;;;;1.83;1.10;;;;;;;;;;4873871;29;20057;-72
2021/05/09 16:01:14;;;;;;;4.18;1.48;;;;;;;;;;4874972;29;20045;-72
2021/05/09 16:03:41;;;;;;;3.05;1.33;;;;;;;;;;4875434;29;20100;-65
2021/05/09 16:06:07;;;;;;;2.25;1.10;;;;;;;;;;4875572;29;20029;-72
2021/05/09 16:08:33;;;;;;;2.78;1.10;;;;;;;;;;4874986;29;20489;-68
2021/05/09 16:10:59;;;;;;;3.20;1.70;;;;;;;;;;4878110;29;20045;-66
2021/05/09 16:13:26;;;;;;;3.30;1.08;;;;;;;;;;4876414;29;20037;-70
2021/05/09 16:15:53;;;;;;;3.00;1.05;;;;;;;;;;4878598;29;20045;-67
2021/05/09 16:18:19;;;;;;;3.63;1.33;;;;;;;;;;4859939;29;20051;-71
2021/05/09 16:20:45;;;;;;;2.67;1.25;;;;;;;;;;4878021;29;20025;-76
2021/05/09 16:23:11;;;;;;;3.92;1.38;;;;;;;;;;4878814;29;20389;-71
2021/05/09 16:25:37;;;;;;;5.72;1.30;;;;;;;;;;4875283;29;20402;-73
2021/05/09 16:28:04;;;;;;;4.53;1.15;;;;;;;;;;4877789;29;20088;-80
2021/05/09 16:30:30;;;;;;;3.92;1.50;;;;;;;;;;4862155;29;20068;-69
2021/05/09 16:32:56;;;;;;;4.20;1.63;;;;;;;;;;4879061;29;20037;-78
2021/05/09 16:35:23;;;;;;;5.35;1.70;;;;;;;;;;4878922;29;20041;-65
2021/05/09 16:37:49;;;;;;;2.70;1.30;;;;;;;;;;4878871;29;20060;-81
2021/05/09 16:40:15;;;;;;;4.07;1.70;;;;;;;;;;4878086;29;20040;-70
2021/05/09 16:42:41;;;;;;;4.65;1.70;;;;;;;;;;4875845;29;20111;-76
2021/05/09 16:45:11;;;;;;;4.00;1.90;;;;;;;;;;4863363;29;20033;-71
2021/05/09 16:47:37;;;;;;;5.57;1.90;;;;;;;;;;4860402;29;20493;-77
2021/05/09 16:50:04;;;;;;;4.90;1.77;;;;;;;;;;4869617;29;20036;-65
2021/05/09 16:52:32;;;;;;;5.20;1.52;;;;;;;;;;4878909;29;20132;-69
2021/05/09 16:54:59;;;;;;;4.55;1.65;;;;;;;;;;4877198;29;20520;-75
2021/05/09 16:57:25;;;;;;;5.72;1.90;;;;;;;;;;4883216;29;20417;-81
2021/05/09 16:59:52;;;;;;;3.88;1.50;;;;;;;;;;4878173;29;20504;-79
2021/05/09 17:02:18;;;;;;;3.33;1.70;;;;;;;;;;4869905;29;20081;-84
2021/05/09 17:04:44;;;;;;;4.75;1.70;;;;;;;;;;4863073;29;20089;-84
2021/05/09 17:07:10;;;;;;;4.00;2.13;;;;;;;;;;4874505;29;20708;-71
2021/05/09 17:09:38;;;;;;;4.63;1.70;;;;;;;;;;4879055;29;20029;-81
2021/05/09 17:12:12;;;;;;;8.38;2.30;;;;;;;;;;4878862;29;20124;-80
2021/05/09 17:14:41;;;;;;;8.40;2.00;;;;;;;;;;4878633;29;20120;-76
2021/05/09 17:17:07;;;;;;;6.60;1.63;;;;;;;;;;4878977;29;20048;-76
2021/05/09 17:19:34;;;;;;;6.78;1.83;;;;;;;;;;4876486;29;20521;-80
2021/05/09 17:22:00;;;;;;;3.38;1.90;;;;;;;;;;4875838;29;20108;-80
2021/05/09 17:24:27;;;;;;;6.03;1.73;;;;;;;;;;4870892;29;20101;-76
2021/05/09 17:26:53;;;;;;;3.80;1.67;;;;;;;;;;4865581;29;20029;-70
2021/05/09 17:29:19;;;;;;;6.03;2.00;;;;;;;;;;4872307;29;20040;-79
2021/05/09 17:31:45;;;;;;;5.47;1.75;;;;;;;;;;4878136;29;20693;-82
2021/05/09 17:34:12;;;;;;;6.78;2.22;;;;;;;;;;4878146;29;20049;-67
2021/05/09 17:36:41;;;;;;;6.00;1.77;;;;;;;;;;4878496;29;20032;-70
2021/05/09 17:39:07;;;;;;;3.55;1.88;;;;;;;;;;4877805;29;20053;-82
2021/05/09 17:41:33;;;;;;;3.92;2.00;;;;;;;;;;4878054;29;20025;-82
2021/05/09 17:44:00;;;;;;;8.10;2.10;;;;;;;;;;4878414;29;20032;-82
2021/05/09 17:46:26;;;;;;;7.03;2.13;;;;;;;;;;4877890;29;20054;-80
2021/05/09 17:48:52;;;;;;;6.55;2.15;;;;;;;;;;4877930;29;20028;-82
2021/05/09 17:51:18;;;;;;;8.93;1.90;;;;;;;;;;4877905;29;20393;-79
2021/05/09 17:53:44;;;;;;;6.60;2.20;;;;;;;;;;4877851;29;20518;-84
2021/05/09 17:56:10;;;;;;;9.73;2.65;;;;;;;;;;4878118;29;20092;-82
2021/05/09 17:58:36;;;;;;;5.13;1.98;;;;;;;;;;4878012;29;20025;-77
2021/05/09 18:01:02;;;;;;;5.22;2.05;;;;;;;;;;4878190;29;20156;-74
2021/05/09 18:03:29;;;;;;;6.30;2.08;;;;;;;;;;4872718;29;20468;-83
2021/05/09 18:05:55;;;;;;;9.65;2.70;;;;;;;;;;4877210;29;20104;-83
2021/05/09 18:08:21;;;;;;;8.85;2.70;;;;;;;;;;4877638;29;20161;-84
2021/05/09 18:10:48;;;;;;;6.97;2.58;;;;;;;;;;4877108;29;20037;-64
2021/05/09 18:13:16;;;;;;;8.65;2.58;;;;;;;;;;4876380;29;20128;-69
2021/05/09 18:16:04;;;;;;;6.15;2.70;;;;;;;;;;4870766;29;20476;-77
2021/05/09 18:23:35;;;;;;;6.78;2.33;;;;;;;;;;4877214;29;20072;-80
2021/05/09 18:26:02;;;;;;;5.97;2.10;;;;;;;;;;4877102;29;20076;-76
2021/05/09 18:28:31;;;;;;;6.25;2.30;;;;;;;;;;4877454;29;20037;-79
2021/05/09 18:30:58;;;;;;;4.80;2.40;;;;;;;;;;4876855;29;20658;-85
2021/05/09 18:33:26;;;;;;;5.88;2.28;;;;;;;;;;4876833;29;20053;-81
2021/05/09 18:35:55;;;;;;;9.65;4.43;;;;;;;;;;4877280;29;20049;-83
2021/05/09 18:38:22;;;;;;;6.75;3.22;;;;;;;;;;4877603;29;20033;-85
2021/05/09 18:40:48;;;;;;;7.10;2.60;;;;;;;;;;4877429;29;20040;-85
2021/05/09 18:43:14;;;;;;;5.30;2.35;;;;;;;;;;4878294;29;20474;-89
2021/05/09 18:45:40;;;;;;;8.38;2.38;;;;;;;;;;4877610;29;20101;-83
2021/05/09 18:48:07;;;;;;;4.20;2.55;;;;;;;;;;4877577;29;20029;-84
2021/05/09 18:50:33;;;;;;;6.32;2.40;;;;;;;;;;4872899;29;20031;-74
2021/05/09 18:53:02;;;;;;;5.07;2.35;;;;;;;;;;4872443;29;20061;-72
2021/05/09 18:55:28;;;;;;;10.02;2.50;;;;;;;;;;4876742;29;20203;-70
2021/05/09 18:57:54;;;;;;;4.32;2.30;;;;;;;;;;4870267;29;20059;-75
2021/05/09 19:00:20;;;;;;;7.80;2.40;;;;;;;;;;4867979;29;20031;-67
2021/05/09 19:02:46;;;;;;;8.20;2.80;;;;;;;;;;4876405;29;20025;-68
2021/05/09 19:05:13;;;;;;;8.15;2.83;;;;;;;;;;4875912;29;20035;-66
2021/05/09 19:07:40;;;;;;;5.10;2.28;;;;;;;;;;4866507;29;20407;-71
2021/05/09 19:10:06;;;;;;;5.25;2.08;;;;;;;;;;4870277;29;20021;-66
2021/05/09 19:12:32;;;;;;;6.60;2.30;;;;;;;;;;4871175;29;20040;-65
2021/05/09 19:15:00;;;;;;;5.20;2.47;;;;;;;;;;4865516;29;20140;-68
2021/05/09 19:17:26;;;;;;;5.55;2.53;;;;;;;;;;4857166;29;20095;-68
2021/05/09 19:19:52;;;;;;;5.80;2.30;;;;;;;;;;4876248;29;20056;-70
2021/05/09 19:22:18;;;;;;;6.20;2.53;;;;;;;;;;4876445;29;20084;-72
2021/05/09 19:24:45;;;;;;;10.60;3.15;;;;;;;;;;4875421;29;20092;-71
2021/05/09 19:27:12;;;;;;;11.43;2.72;;;;;;;;;;4859593;29;20136;-70
2021/05/09 19:29:38;;;;;;;5.43;2.47;;;;;;;;;;4859432;29;20033;-67
2021/05/09 19:32:05;;;;;;;4.20;2.00;;;;;;;;;;4876556;29;20079;-74
2021/05/09 19:34:31;;;;;;;7.97;2.65;;;;;;;;;;4876386;29;20117;-72
2021/05/09 19:36:57;;;;;;;13.90;3.75;;;;;;;;;;4876207;29;20441;-68
2021/05/09 19:39:24;;;;;;;9.65;2.20;;;;;;;;;;4868208;29;20060;-69
2021/05/09 19:41:52;;;;;;;8.43;2.65;;;;;;;;;;4876507;29;20033;-70
2021/05/09 19:44:18;;;;;;;7.68;2.60;;;;;;;;;;4878173;29;20176;-72
2021/05/09 19:46:44;;;;;;;8.05;2.50;;;;;;;;;;4863025;29;20041;-73
2021/05/09 19:49:13;;;;;;;6.93;2.28;;;;;;;;;;4879275;29;20033;-71
2021/05/09 19:51:40;;;;;;;9.00;2.20;;;;;;;;;;4867327;29;20424;-68
2021/05/09 19:54:06;;;;;;;5.97;2.83;;;;;;;;;;4860632;29;20053;-72
2021/05/09 19:56:32;;;;;;;7.25;2.22;;;;;;;;;;4860922;29;20037;-71
2021/05/09 19:58:58;;;;;;;4.25;1.98;;;;;;;;;;4869062;29;20904;-73
2021/05/09 20:01:25;;;;;;;4.93;2.20;;;;;;;;;;4879445;29;20551;-76
2021/05/09 20:03:51;;;;;;;7.82;2.80;;;;;;;;;;4868920;29;20093;-73
2021/05/09 20:06:17;;;;;;;7.65;2.30;;;;;;;;;;4860878;29;20037;-71
2021/05/09 20:08:43;;;;;;;13.15;2.35;;;;;;;;;;4860947;29;20494;-74
2021/05/09 20:11:09;;;;;;;7.75;2.35;;;;;;;;;;4860864;29;20134;-70
2021/05/09 20:13:35;;;;;;;10.07;2.40;;;;;;;;;;4860656;29;20033;-71
2021/05/09 20:16:01;;;;;;;5.18;2.45;;;;;;;;;;4860956;29;20097;-72
2021/05/09 20:18:28;;;;;;;9.10;2.63;;;;;;;;;;4860699;29;20450;-67
2021/05/09 20:20:57;;;;;;;9.50;2.20;;;;;;;;;;4860692;29;20036;-67
2021/05/09 20:23:23;;;;;;;6.80;2.30;;;;;;;;;;4860858;29;20375;-73
2021/05/09 20:25:49;;;;;;;8.95;2.40;;;;;;;;;;4860664;29;20029;-72
2021/05/09 20:28:15;;;;;;;10.18;2.55;;;;;;;;;;4881244;29;20044;-70
2021/05/09 20:30:41;;;;;;;6.35;2.38;;;;;;;;;;4878520;29;20491;-71
2021/05/09 20:33:07;;;;;;;4.95;2.22;;;;;;;;;;4878956;29;20029;-69
2021/05/09 20:35:33;;;;;;;13.82;2.75;;;;;;;;;;4878384;29;20076;-66
2021/05/09 20:37:59;;;;;;;8.25;2.33;;;;;;;;;;4878471;29;20104;-68
2021/05/09 20:40:27;;;;;;;18.17;2.40;;;;;;;;;;4877688;29;20037;-68
2021/05/09 20:42:54;;;;;;;7.53;2.22;;;;;;;;;;4878535;29;20497;-67
2021/05/09 20:45:20;;;;;;;11.70;2.60;;;;;;;;;;4878416;29;20032;-67
2021/05/09 20:47:46;;;;;;;7.43;2.53;;;;;;;;;;4878659;29;20486;-66
2021/05/09 20:50:12;;;;;;;10.60;2.60;;;;;;;;;;4878590;29;20514;-65
2021/05/09 20:52:39;;;;;;;8.43;2.58;;;;;;;;;;4878229;29;20064;-66
2021/05/09 20:55:05;;;;;;;5.55;2.47;;;;;;;;;;4877063;29;20512;-64
2021/05/09 20:57:31;;;;;;;7.30;2.72;;;;;;;;;;4877844;29;20481;-65
2021/05/09 20:59:57;;;;;;;5.53;2.60;;;;;;;;;;4877950;29;20081;-67
2021/05/09 21:02:23;;;;;;;6.20;2.58;;;;;;;;;;4861233;29;20401;-64
2021/05/09 21:04:50;;;;;;;5.95;2.45;;;;;;;;;;4880372;29;20032;-67
2021/05/09 21:07:16;;;;;;;7.45;2.85;;;;;;;;;;4877859;29;20064;-67
2021/05/09 21:09:42;;;;;;;8.38;2.53;;;;;;;;;;4877672;29;20039;-65
2021/05/09 21:12:09;;;;;;;8.95;2.97;;;;;;;;;;4878471;29;20036;-68
2021/05/09 21:14:35;;;;;;;7.70;2.83;;;;;;;;;;4877204;29;20437;-67
2021/05/09 21:17:01;;;;;;;6.32;2.50;;;;;;;;;;4877838;29;20024;-68
2021/05/09 21:19:27;;;;;;;9.68;2.67;;;;;;;;;;4877655;29;20500;-67
2021/05/09 21:21:53;;;;;;;7.22;2.70;;;;;;;;;;4860550;29;20442;-65
2021/05/09 21:24:19;;;;;;;7.93;2.75;;;;;;;;;;4878281;29;20060;-68
2021/05/09 21:26:45;;;;;;;8.60;2.60;;;;;;;;;;4877726;29;20358;-70
2021/05/09 21:29:11;;;;;;;5.53;2.22;;;;;;;;;;4877818;29;20112;-68
2021/05/09 21:31:37;;;;;;;7.15;2.78;;;;;;;;;;4878133;29;20037;-70
2021/05/09 21:34:03;;;;;;;6.93;2.70;;;;;;;;;;4878084;29;20536;-69